createdAt,value
2022-10-02T00:00:06.479Z,0
2022-10-02T00:01:06.539Z,0
2022-10-02T00:02:06.483Z,0
2022-10-02T00:03:06.482Z,0
2022-10-02T00:04:06.552Z,0
2022-10-02T00:05:06.491Z,0
2022-10-02T00:06:06.500Z,0
2022-10-02T00:07:06.493Z,0
2022-10-02T00:08:06.532Z,0
2022-10-02T00:09:06.488Z,0
2022-10-02T00:10:06.486Z,0
2022-10-02T00:11:06.497Z,0
2022-10-02T00:12:06.496Z,0
2022-10-02T00:13:06.502Z,0
2022-10-02T00:14:06.499Z,0
2022-10-02T00:15:06.500Z,0
2022-10-02T00:16:06.519Z,0
2022-10-02T00:17:06.505Z,0
2022-10-02T00:18:06.501Z,0
2022-10-02T00:19:06.506Z,0
2022-10-02T00:20:06.502Z,0
2022-10-02T00:21:06.514Z,0
2022-10-02T00:22:06.523Z,0
2022-10-02T00:23:06.504Z,0
2022-10-02T00:24:06.500Z,0
2022-10-02T00:25:06.504Z,0
2022-10-02T00:26:06.503Z,0
2022-10-02T00:27:06.506Z,0
2022-10-02T00:28:06.535Z,0
2022-10-02T00:29:06.509Z,0
2022-10-02T00:30:06.514Z,0
2022-10-02T00:31:06.519Z,0
2022-10-02T00:32:06.550Z,0
2022-10-02T00:33:06.501Z,0
2022-10-02T00:34:06.508Z,0
2022-10-02T00:35:06.512Z,0
2022-10-02T00:36:06.514Z,0
2022-10-02T00:37:06.502Z,0
2022-10-02T00:38:06.524Z,0
2022-10-02T00:39:06.514Z,0
2022-10-02T00:40:06.521Z,0
2022-10-02T00:41:06.520Z,0
2022-10-02T00:42:06.509Z,0
2022-10-02T00:43:06.519Z,0
2022-10-02T00:44:06.519Z,0
2022-10-02T00:45:06.517Z,0
2022-10-02T00:46:06.566Z,0
2022-10-02T00:47:06.519Z,0
2022-10-02T00:48:06.515Z,0
2022-10-02T00:49:06.521Z,0
2022-10-02T00:50:06.525Z,0
2022-10-02T00:51:06.520Z,0
2022-10-02T00:52:06.521Z,0
2022-10-02T00:53:06.516Z,0
2022-10-02T00:54:06.547Z,0
2022-10-02T00:55:06.525Z,0
2022-10-02T00:56:06.521Z,0
2022-10-02T00:57:06.526Z,0
2022-10-02T00:58:06.523Z,0
2022-10-02T00:59:06.519Z,0
2022-10-02T01:00:06.525Z,0
2022-10-02T01:01:06.534Z,0
2022-10-02T01:02:06.557Z,0
2022-10-02T01:03:06.527Z,0
2022-10-02T01:04:06.527Z,0
2022-10-02T01:05:06.525Z,0
2022-10-02T01:06:06.525Z,0
2022-10-02T01:07:06.512Z,0
2022-10-02T01:08:06.520Z,0
2022-10-02T01:09:06.527Z,0
2022-10-02T01:10:06.551Z,0
2022-10-02T01:11:06.536Z,0
2022-10-02T01:12:06.518Z,0
2022-10-02T01:13:06.526Z,0
2022-10-02T01:14:06.526Z,0
2022-10-02T01:15:06.531Z,0
2022-10-02T01:16:06.576Z,0
2022-10-02T01:17:06.540Z,0
2022-10-02T01:18:06.537Z,0
2022-10-02T01:19:06.537Z,0
2022-10-02T01:20:06.549Z,0
2022-10-02T01:21:06.539Z,0
2022-10-02T01:22:06.541Z,0
2022-10-02T01:23:06.546Z,0
2022-10-02T01:24:06.548Z,0
2022-10-02T01:25:06.556Z,0
2022-10-02T01:26:06.579Z,0
2022-10-02T01:27:06.552Z,0
2022-10-02T01:28:06.623Z,0
2022-10-02T01:29:06.557Z,0
2022-10-02T01:30:06.555Z,0
2022-10-02T01:31:06.561Z,0
2022-10-02T01:32:06.562Z,0
2022-10-02T01:33:06.584Z,0
2022-10-02T01:34:06.564Z,0
2022-10-02T01:35:06.560Z,0
2022-10-02T01:36:06.567Z,0
2022-10-02T01:37:06.571Z,0
2022-10-02T01:38:06.596Z,0
2022-10-02T01:39:06.575Z,0
2022-10-02T01:40:06.585Z,0
2022-10-02T01:41:06.580Z,0
2022-10-02T01:42:06.605Z,0
2022-10-02T01:43:06.594Z,0
2022-10-02T01:44:06.579Z,0
2022-10-02T01:45:06.578Z,0
2022-10-02T01:46:06.632Z,0
2022-10-02T01:47:06.586Z,0
2022-10-02T01:48:06.600Z,0
2022-10-02T01:49:06.595Z,0
2022-10-02T01:50:06.577Z,0
2022-10-02T01:51:06.593Z,0
2022-10-02T01:52:06.587Z,0
2022-10-02T01:53:06.598Z,0
2022-10-02T01:54:06.599Z,0
2022-10-02T01:55:06.596Z,0
2022-10-02T01:56:06.605Z,0
2022-10-02T01:57:06.604Z,0
2022-10-02T01:58:06.628Z,0
2022-10-02T01:59:06.607Z,0
2022-10-02T02:00:06.609Z,0
2022-10-02T02:01:06.683Z,0
2022-10-02T02:02:06.664Z,0
2022-10-02T02:03:06.624Z,0
2022-10-02T02:04:06.615Z,0
2022-10-02T02:05:06.618Z,0
2022-10-02T02:06:06.619Z,0
2022-10-02T02:07:06.626Z,0
2022-10-02T02:08:06.621Z,0
2022-10-02T02:09:06.628Z,0
2022-10-02T02:10:06.622Z,0
2022-10-02T02:11:06.632Z,0
2022-10-02T02:12:06.633Z,0
2022-10-02T02:13:06.628Z,0
2022-10-02T02:14:06.664Z,0
2022-10-02T02:15:06.640Z,0
2022-10-02T02:16:06.698Z,0
2022-10-02T02:17:06.641Z,0
2022-10-02T02:18:06.650Z,0
2022-10-02T02:19:06.646Z,0
2022-10-02T02:20:06.655Z,0
2022-10-02T02:21:06.657Z,0
2022-10-02T02:22:06.659Z,0
2022-10-02T02:23:06.646Z,0
2022-10-02T02:24:06.649Z,0
2022-10-02T02:25:06.649Z,0
2022-10-02T02:26:06.646Z,0
2022-10-02T02:27:06.655Z,0
2022-10-02T02:28:06.700Z,0
2022-10-02T02:29:06.661Z,0
2022-10-02T02:30:06.683Z,0
2022-10-02T02:31:06.669Z,0
2022-10-02T02:32:06.688Z,0
2022-10-02T02:33:06.664Z,0
2022-10-02T02:34:06.671Z,0
2022-10-02T02:35:06.680Z,0
2022-10-02T02:36:06.674Z,0
2022-10-02T02:37:06.690Z,0
2022-10-02T02:38:06.677Z,0
2022-10-02T02:39:06.685Z,0
2022-10-02T02:40:06.694Z,0
2022-10-02T02:41:06.682Z,0
2022-10-02T02:42:06.696Z,0
2022-10-02T02:43:06.688Z,0
2022-10-02T02:44:06.690Z,0
2022-10-02T02:45:06.692Z,0
2022-10-02T02:46:06.818Z,0
2022-10-02T02:47:06.773Z,0
2022-10-02T02:48:06.693Z,0
2022-10-02T02:49:06.697Z,0
2022-10-02T02:50:06.695Z,0
2022-10-02T02:51:06.691Z,0
2022-10-02T02:52:06.695Z,0
2022-10-02T02:53:06.697Z,0
2022-10-02T02:54:06.700Z,0
2022-10-02T02:55:06.703Z,0
2022-10-02T02:56:06.696Z,0
2022-10-02T02:57:06.733Z,0
2022-10-02T02:58:06.696Z,0
2022-10-02T02:59:06.705Z,0
2022-10-02T03:00:06.703Z,0
2022-10-02T03:01:06.801Z,0
2022-10-02T03:02:06.818Z,0
2022-10-02T03:03:06.706Z,0
2022-10-02T03:04:06.708Z,0
2022-10-02T03:05:06.703Z,0
2022-10-02T03:06:06.724Z,0
2022-10-02T03:07:06.706Z,0
2022-10-02T03:08:06.716Z,0
2022-10-02T03:09:06.704Z,0
2022-10-02T03:10:06.719Z,0
2022-10-02T03:11:06.717Z,0
2022-10-02T03:12:06.716Z,0
2022-10-02T03:13:06.711Z,0
2022-10-02T03:14:06.719Z,0
2022-10-02T03:15:06.723Z,0
2022-10-02T03:16:06.771Z,0
2022-10-02T03:17:06.721Z,0
2022-10-02T03:18:06.756Z,0
2022-10-02T03:19:06.724Z,0
2022-10-02T03:20:06.723Z,0
2022-10-02T03:21:06.728Z,0
2022-10-02T03:22:06.725Z,0
2022-10-02T03:23:06.721Z,0
2022-10-02T03:24:06.736Z,0
2022-10-02T03:25:06.727Z,0
2022-10-02T03:26:06.730Z,0
2022-10-02T03:27:06.743Z,0
2022-10-02T03:28:06.785Z,0
2022-10-02T03:29:06.810Z,0
2022-10-02T03:30:06.731Z,0
2022-10-02T03:31:06.754Z,0
2022-10-02T03:32:06.735Z,0
2022-10-02T03:33:06.731Z,0
2022-10-02T03:34:06.749Z,0
2022-10-02T03:35:06.734Z,0
2022-10-02T03:36:06.737Z,0
2022-10-02T03:37:06.736Z,0
2022-10-02T03:38:06.738Z,0
2022-10-02T03:39:24.029Z,0
2022-10-02T03:40:06.742Z,0
2022-10-02T03:41:06.742Z,0
2022-10-02T03:42:06.735Z,0
2022-10-02T03:43:06.742Z,0
2022-10-02T03:44:06.745Z,0
2022-10-02T03:45:06.741Z,0
2022-10-02T03:46:06.793Z,0
2022-10-02T03:47:06.743Z,0
2022-10-02T03:48:06.749Z,0
2022-10-02T03:49:06.747Z,0
2022-10-02T03:50:06.770Z,0
2022-10-02T03:51:06.752Z,0
2022-10-02T03:52:06.739Z,0
2022-10-02T03:53:06.751Z,0
2022-10-02T03:54:06.755Z,0
2022-10-02T03:55:06.745Z,0
2022-10-02T03:56:06.756Z,0
2022-10-02T03:57:06.754Z,0
2022-10-02T03:58:06.756Z,0
2022-10-02T03:59:06.749Z,0
2022-10-02T04:00:06.749Z,0
2022-10-02T04:01:06.744Z,0
2022-10-02T04:02:06.791Z,0
2022-10-02T04:03:06.750Z,0
2022-10-02T04:04:06.746Z,0
2022-10-02T04:05:06.759Z,0
2022-10-02T04:06:06.776Z,0
2022-10-02T04:07:06.754Z,0
2022-10-02T04:08:06.755Z,0
2022-10-02T04:09:06.756Z,0
2022-10-02T04:10:06.762Z,0
2022-10-02T04:11:06.759Z,0
2022-10-02T04:12:06.759Z,0
2022-10-02T04:13:06.764Z,0
2022-10-02T04:14:06.753Z,0
2022-10-02T04:15:06.754Z,0
2022-10-02T04:16:06.823Z,0
2022-10-02T04:17:06.767Z,0
2022-10-02T04:18:06.756Z,0
2022-10-02T04:19:06.767Z,0
2022-10-02T04:20:06.758Z,0
2022-10-02T04:21:06.769Z,0
2022-10-02T04:22:06.868Z,0
2022-10-02T04:23:06.774Z,0
2022-10-02T04:24:06.768Z,0
2022-10-02T04:25:06.759Z,0
2022-10-02T04:26:06.768Z,0
2022-10-02T04:27:06.757Z,0
2022-10-02T04:28:06.825Z,0
2022-10-02T04:29:06.767Z,0
2022-10-02T04:30:06.763Z,0
2022-10-02T04:31:06.802Z,0
2022-10-02T04:32:06.769Z,0
2022-10-02T04:33:06.771Z,0
2022-10-02T04:34:06.762Z,0
2022-10-02T04:35:06.763Z,0
2022-10-02T04:36:06.761Z,0
2022-10-02T04:37:06.777Z,0
2022-10-02T04:38:06.781Z,0
2022-10-02T04:39:06.769Z,0
2022-10-02T04:40:06.770Z,0
2022-10-02T04:41:06.771Z,0
2022-10-02T04:42:06.760Z,0
2022-10-02T04:43:06.782Z,0
2022-10-02T04:44:06.770Z,0
2022-10-02T04:45:06.772Z,0
2022-10-02T04:46:06.825Z,0
2022-10-02T04:47:06.772Z,0
2022-10-02T04:48:06.770Z,0
2022-10-02T04:49:06.770Z,0
2022-10-02T04:50:06.770Z,0
2022-10-02T04:51:06.772Z,0
2022-10-02T04:52:06.769Z,0
2022-10-02T04:53:06.773Z,0
2022-10-02T04:54:06.800Z,0
2022-10-02T04:55:06.770Z,0
2022-10-02T04:56:06.766Z,0
2022-10-02T04:57:06.771Z,0
2022-10-02T04:58:06.772Z,0
2022-10-02T04:59:06.768Z,0
2022-10-02T05:00:06.773Z,0
2022-10-02T05:01:06.807Z,0
2022-10-02T05:02:06.828Z,0
2022-10-02T05:03:06.774Z,0
2022-10-02T05:04:06.781Z,0
2022-10-02T05:05:06.774Z,0
2022-10-02T05:06:06.768Z,0
2022-10-02T05:07:06.770Z,0
2022-10-02T05:08:06.770Z,0
2022-10-02T05:09:06.772Z,0
2022-10-02T05:10:06.802Z,0
2022-10-02T05:11:06.780Z,0
2022-10-02T05:12:06.778Z,0
2022-10-02T05:13:06.780Z,0
2022-10-02T05:14:06.778Z,0
2022-10-02T05:15:06.777Z,0
2022-10-02T05:16:06.846Z,0
2022-10-02T05:17:06.774Z,0
2022-10-02T05:18:06.790Z,0
2022-10-02T05:19:06.782Z,0
2022-10-02T05:20:06.781Z,0
2022-10-02T05:21:06.790Z,0
2022-10-02T05:22:06.773Z,0
2022-10-02T05:23:06.775Z,0
2022-10-02T05:24:06.781Z,0
2022-10-02T05:25:06.780Z,0
2022-10-02T05:26:09.642Z,0
2022-10-02T05:27:06.792Z,0
2022-10-02T05:28:06.813Z,0
2022-10-02T05:29:06.782Z,0
2022-10-02T05:30:06.781Z,0
2022-10-02T05:31:06.866Z,0
2022-10-02T05:32:06.777Z,0
2022-10-02T05:33:06.782Z,0
2022-10-02T05:34:06.780Z,0
2022-10-02T05:35:06.780Z,0
2022-10-02T05:36:06.787Z,0
2022-10-02T05:37:06.783Z,0
2022-10-02T05:38:06.783Z,0
2022-10-02T05:39:06.786Z,0
2022-10-02T05:40:06.790Z,0
2022-10-02T05:41:06.799Z,0
2022-10-02T05:42:06.904Z,0
2022-10-02T05:43:06.793Z,0
2022-10-02T05:44:06.794Z,0
2022-10-02T05:45:06.790Z,0
2022-10-02T05:46:06.798Z,0
2022-10-02T05:47:06.808Z,0
2022-10-02T05:48:06.784Z,0
2022-10-02T05:49:06.797Z,0
2022-10-02T05:50:06.795Z,0
2022-10-02T05:51:06.815Z,0
2022-10-02T05:52:06.805Z,0
2022-10-02T05:53:06.800Z,0
2022-10-02T05:54:06.817Z,0
2022-10-02T05:55:06.808Z,0
2022-10-02T05:56:06.801Z,0
2022-10-02T05:57:06.810Z,0
2022-10-02T05:58:06.835Z,0
2022-10-02T05:59:06.819Z,0
2022-10-02T06:00:06.814Z,0
2022-10-02T06:01:06.887Z,0
2022-10-02T06:02:06.874Z,0
2022-10-02T06:03:06.825Z,0
2022-10-02T06:04:06.814Z,0
2022-10-02T06:05:06.815Z,0
2022-10-02T06:06:06.822Z,0
2022-10-02T06:07:06.824Z,0
2022-10-02T06:08:06.819Z,0
2022-10-02T06:09:06.828Z,0
2022-10-02T06:10:06.822Z,0
2022-10-02T06:11:06.829Z,0
2022-10-02T06:12:06.827Z,0
2022-10-02T06:13:06.833Z,0
2022-10-02T06:14:06.853Z,0
2022-10-02T06:15:06.838Z,0
2022-10-02T06:16:06.904Z,0
2022-10-02T06:17:06.840Z,0
2022-10-02T06:18:06.837Z,0
2022-10-02T06:19:06.844Z,0
2022-10-02T06:20:06.835Z,0
2022-10-02T06:21:06.846Z,0
2022-10-02T06:22:06.844Z,0
2022-10-02T06:23:06.851Z,0
2022-10-02T06:24:06.840Z,0
2022-10-02T06:25:06.851Z,0
2022-10-02T06:26:06.838Z,0
2022-10-02T06:27:06.837Z,0
2022-10-02T06:28:06.887Z,0
2022-10-02T06:29:06.899Z,0
2022-10-02T06:30:06.871Z,0
2022-10-02T06:31:06.907Z,0
2022-10-02T06:32:06.851Z,0
2022-10-02T06:33:06.863Z,0
2022-10-02T06:34:06.855Z,0
2022-10-02T06:35:06.860Z,0
2022-10-02T06:36:06.858Z,0
2022-10-02T06:37:06.864Z,0
2022-10-02T06:38:06.853Z,0
2022-10-02T06:39:06.865Z,0
2022-10-02T06:40:06.857Z,0
2022-10-02T06:41:06.859Z,0
2022-10-02T06:42:06.861Z,0
2022-10-02T06:43:06.863Z,0
2022-10-02T06:44:06.864Z,0
2022-10-02T06:45:06.872Z,0
2022-10-02T06:46:07.018Z,0
2022-10-02T06:47:06.877Z,0
2022-10-02T06:48:06.876Z,0
2022-10-02T06:49:06.873Z,0
2022-10-02T06:50:06.875Z,0
2022-10-02T06:51:06.875Z,0
2022-10-02T06:52:06.870Z,0
2022-10-02T06:53:06.871Z,0
2022-10-02T06:54:06.872Z,0
2022-10-02T06:55:06.881Z,0
2022-10-02T06:56:06.885Z,0
2022-10-02T06:57:06.884Z,0
2022-10-02T06:58:06.880Z,0
2022-10-02T06:59:06.890Z,0
2022-10-02T07:00:06.887Z,0
2022-10-02T07:01:07.063Z,0
2022-10-02T07:02:06.965Z,0
2022-10-02T07:03:06.892Z,0
2022-10-02T07:04:06.887Z,0
2022-10-02T07:05:06.888Z,0
2022-10-02T07:06:06.937Z,0
2022-10-02T07:07:06.893Z,0
2022-10-02T07:08:06.899Z,0
2022-10-02T07:09:06.887Z,0
2022-10-02T07:10:06.892Z,0
2022-10-02T07:11:06.889Z,0
2022-10-02T07:12:06.897Z,0
2022-10-02T07:13:06.907Z,0
2022-10-02T07:14:06.897Z,0
2022-10-02T07:15:06.904Z,0
2022-10-02T07:16:07.050Z,0
2022-10-02T07:17:06.904Z,0
2022-10-02T07:18:06.926Z,0
2022-10-02T07:19:06.914Z,0
2022-10-02T07:20:06.908Z,0
2022-10-02T07:21:06.910Z,0
2022-10-02T07:22:20.491Z,0
2022-10-02T07:23:07.834Z,0
2022-10-02T07:24:06.921Z,0
2022-10-02T07:25:06.918Z,0
2022-10-02T07:26:06.912Z,0
2022-10-02T07:27:06.914Z,0
2022-10-02T07:28:06.970Z,0
2022-10-02T07:29:06.928Z,0
2022-10-02T07:30:06.924Z,0
2022-10-02T07:31:07.003Z,0
2022-10-02T07:32:06.931Z,0
2022-10-02T07:33:06.932Z,0
2022-10-02T07:34:06.953Z,0
2022-10-02T07:35:06.929Z,0
2022-10-02T07:36:06.933Z,0
2022-10-02T07:37:06.933Z,0
2022-10-02T07:38:06.929Z,0
2022-10-02T07:39:06.936Z,0
2022-10-02T07:40:06.934Z,0
2022-10-02T07:41:06.939Z,0
2022-10-02T07:42:06.935Z,0
2022-10-02T07:43:06.941Z,0
2022-10-02T07:44:06.933Z,0
2022-10-02T07:45:06.937Z,0
2022-10-02T07:46:09.500Z,0
2022-10-02T07:47:06.939Z,0
2022-10-02T07:48:06.948Z,0
2022-10-02T07:49:06.944Z,0
2022-10-02T07:50:06.970Z,0
2022-10-02T07:51:06.944Z,0
2022-10-02T07:52:06.948Z,0
2022-10-02T07:53:06.936Z,0
2022-10-02T07:54:06.939Z,0
2022-10-02T07:55:06.948Z,0
2022-10-02T07:56:06.950Z,0
2022-10-02T07:57:09.843Z,0
2022-10-02T07:58:06.950Z,0
2022-10-02T07:59:06.956Z,0
2022-10-02T08:00:06.949Z,0
2022-10-02T08:01:06.957Z,0
2022-10-02T08:02:07.017Z,0
2022-10-02T08:03:07.001Z,0
2022-10-02T08:04:06.987Z,0
2022-10-02T08:05:06.961Z,0
2022-10-02T08:06:06.977Z,0
2022-10-02T08:07:06.963Z,0
2022-10-02T08:08:06.950Z,0
2022-10-02T08:09:06.963Z,0
2022-10-02T08:10:06.965Z,0
2022-10-02T08:11:06.961Z,0
2022-10-02T08:12:06.970Z,0
2022-10-02T08:13:06.968Z,0
2022-10-02T08:14:06.964Z,0
2022-10-02T08:15:06.963Z,0
2022-10-02T08:16:07.004Z,0
2022-10-02T08:17:06.981Z,0
2022-10-02T08:18:23.166Z,0
2022-10-02T08:19:07.005Z,0
2022-10-02T08:20:06.989Z,1.7000000000000002
2022-10-02T08:21:06.995Z,2.8000000000000003
2022-10-02T08:22:07.012Z,0
2022-10-02T08:23:06.981Z,0
2022-10-02T08:24:06.975Z,0
2022-10-02T08:25:06.977Z,0
2022-10-02T08:26:06.990Z,0
2022-10-02T08:27:06.986Z,0
2022-10-02T08:28:07.016Z,0
2022-10-02T08:29:06.985Z,0
2022-10-02T08:30:06.985Z,0
2022-10-02T08:31:06.987Z,0
2022-10-02T08:32:06.987Z,0
2022-10-02T08:33:06.994Z,0
2022-10-02T08:34:06.994Z,0
2022-10-02T08:35:06.984Z,0
2022-10-02T08:36:06.996Z,0
2022-10-02T08:37:06.998Z,0
2022-10-02T08:38:07.030Z,0
2022-10-02T08:39:07.005Z,0
2022-10-02T08:40:06.993Z,0
2022-10-02T08:41:07.007Z,0
2022-10-02T08:42:07.009Z,0
2022-10-02T08:43:06.998Z,0
2022-10-02T08:44:07.010Z,0
2022-10-02T08:45:07.009Z,0
2022-10-02T08:46:07.074Z,1.1
2022-10-02T08:47:07.008Z,0
2022-10-02T08:48:07.007Z,0
2022-10-02T08:49:07.021Z,0
2022-10-02T08:50:07.016Z,0
2022-10-02T08:51:07.016Z,0
2022-10-02T08:52:07.014Z,0
2022-10-02T08:53:07.017Z,0
2022-10-02T08:54:07.036Z,2.8000000000000003
2022-10-02T08:55:07.021Z,1.8
2022-10-02T08:56:07.030Z,0
2022-10-02T08:57:07.020Z,0
2022-10-02T08:58:07.023Z,0
2022-10-02T08:59:07.027Z,0
2022-10-02T09:00:07.038Z,0
2022-10-02T09:01:07.084Z,0
2022-10-02T09:02:07.049Z,0
2022-10-02T09:03:07.030Z,0
2022-10-02T09:04:07.028Z,0
2022-10-02T09:05:07.038Z,0
2022-10-02T09:06:07.029Z,0
2022-10-02T09:07:07.028Z,0
2022-10-02T09:08:07.035Z,0
2022-10-02T09:09:07.032Z,0
2022-10-02T09:10:07.058Z,0
2022-10-02T09:11:07.031Z,0
2022-10-02T09:12:07.033Z,0
2022-10-02T09:13:07.050Z,0
2022-10-02T09:14:07.039Z,0
2022-10-02T09:15:07.039Z,0
2022-10-02T09:16:07.071Z,0
2022-10-02T09:17:07.045Z,2.5
2022-10-02T09:18:07.041Z,1.3
2022-10-02T09:19:07.043Z,0
2022-10-02T09:20:07.053Z,0
2022-10-02T09:21:11.384Z,0
2022-10-02T09:22:07.042Z,0
2022-10-02T09:23:07.094Z,0
2022-10-02T09:24:07.039Z,0
2022-10-02T09:25:07.048Z,0
2022-10-02T09:26:07.070Z,0
2022-10-02T09:27:07.050Z,0
2022-10-02T09:28:07.117Z,0
2022-10-02T09:29:07.049Z,0
2022-10-02T09:30:07.054Z,0
2022-10-02T09:31:07.047Z,0
2022-10-02T09:32:07.065Z,0
2022-10-02T09:33:07.060Z,0
2022-10-02T09:34:07.052Z,0
2022-10-02T09:35:07.057Z,0
2022-10-02T09:36:07.058Z,0
2022-10-02T09:37:07.057Z,0
2022-10-02T09:38:07.061Z,0
2022-10-02T09:39:07.056Z,0
2022-10-02T09:40:07.061Z,0
2022-10-02T09:41:07.057Z,0
2022-10-02T09:42:07.090Z,0
2022-10-02T09:43:07.071Z,0
2022-10-02T09:44:07.066Z,0
2022-10-02T09:45:07.065Z,0
2022-10-02T09:46:07.126Z,0
2022-10-02T09:47:07.056Z,0
2022-10-02T09:48:07.070Z,0
2022-10-02T09:49:07.072Z,0
2022-10-02T09:50:07.068Z,0
2022-10-02T09:51:07.079Z,0
2022-10-02T09:52:07.075Z,0
2022-10-02T09:53:07.064Z,0
2022-10-02T09:54:07.077Z,0
2022-10-02T09:55:07.066Z,0
2022-10-02T09:56:07.072Z,0
2022-10-02T09:57:07.070Z,0
2022-10-02T09:58:07.096Z,0
2022-10-02T09:59:07.072Z,0
2022-10-02T10:00:07.069Z,0
2022-10-02T10:01:07.089Z,0
2022-10-02T10:02:07.113Z,0
2022-10-02T10:03:07.069Z,0
2022-10-02T10:04:07.075Z,0
2022-10-02T10:05:07.198Z,0
2022-10-02T10:06:07.071Z,0
2022-10-02T10:07:07.063Z,0
2022-10-02T10:08:07.079Z,0
2022-10-02T10:09:07.080Z,0
2022-10-02T10:10:07.073Z,0
2022-10-02T10:11:07.081Z,0
2022-10-02T10:12:07.075Z,0
2022-10-02T10:13:07.077Z,0
2022-10-02T10:14:07.112Z,0
2022-10-02T10:15:09.092Z,0
2022-10-02T10:16:07.094Z,0
2022-10-02T10:17:07.089Z,0
2022-10-02T10:18:07.081Z,0
2022-10-02T10:19:07.084Z,0
2022-10-02T10:20:07.082Z,0
2022-10-02T10:21:07.089Z,0
2022-10-02T10:22:07.081Z,0
2022-10-02T10:23:07.085Z,0
2022-10-02T10:24:07.082Z,0
2022-10-02T10:25:07.076Z,0
2022-10-02T10:26:07.085Z,0
2022-10-02T10:27:08.184Z,0
2022-10-02T10:28:07.106Z,0
2022-10-02T10:29:07.078Z,0
2022-10-02T10:30:07.111Z,0
2022-10-02T10:31:07.088Z,0
2022-10-02T10:32:07.116Z,0
2022-10-02T10:33:07.083Z,0
2022-10-02T10:34:07.085Z,0
2022-10-02T10:35:07.091Z,0
2022-10-02T10:36:07.085Z,0
2022-10-02T10:37:07.084Z,0
2022-10-02T10:38:07.085Z,0
2022-10-02T10:39:07.089Z,0
2022-10-02T10:40:07.092Z,0
2022-10-02T10:41:07.090Z,0
2022-10-02T10:42:07.092Z,0
2022-10-02T10:43:08.408Z,0
2022-10-02T10:44:07.102Z,0
2022-10-02T10:45:07.095Z,0
2022-10-02T10:46:07.250Z,0
2022-10-02T10:47:07.106Z,0
2022-10-02T10:48:07.096Z,0
2022-10-02T10:49:07.104Z,0
2022-10-02T10:50:07.106Z,0
2022-10-02T10:51:07.102Z,0
2022-10-02T10:52:07.099Z,0
2022-10-02T10:53:07.116Z,0
2022-10-02T10:54:07.103Z,0
2022-10-02T10:55:07.118Z,0
2022-10-02T10:56:07.108Z,0
2022-10-02T10:57:07.109Z,0
2022-10-02T10:58:07.110Z,0
2022-10-02T10:59:07.117Z,0
2022-10-02T11:00:07.122Z,0
2022-10-02T11:01:07.215Z,0
2022-10-02T11:02:07.151Z,0
2022-10-02T11:03:07.116Z,0
2022-10-02T11:04:07.113Z,0
2022-10-02T11:05:07.112Z,0
2022-10-02T11:06:07.112Z,0
2022-10-02T11:07:07.120Z,0
2022-10-02T11:08:07.118Z,0
2022-10-02T11:09:07.112Z,0
2022-10-02T11:10:07.125Z,0
2022-10-02T11:11:07.123Z,0
2022-10-02T11:12:09.639Z,0
2022-10-02T11:13:07.115Z,0
2022-10-02T11:14:07.118Z,0
2022-10-02T11:15:07.114Z,0
2022-10-02T11:16:07.190Z,0
2022-10-02T11:17:07.120Z,0
2022-10-02T11:18:07.144Z,0
2022-10-02T11:19:07.119Z,0
2022-10-02T11:20:07.117Z,0
2022-10-02T11:21:07.125Z,0
2022-10-02T11:22:07.127Z,0
2022-10-02T11:23:07.110Z,0
2022-10-02T11:24:07.129Z,0
2022-10-02T11:25:10.623Z,0
2022-10-02T11:26:07.125Z,0
2022-10-02T11:27:07.131Z,0
2022-10-02T11:28:07.169Z,0
2022-10-02T11:29:07.134Z,0
2022-10-02T11:30:07.140Z,0
2022-10-02T11:31:07.125Z,0
2022-10-02T11:32:07.158Z,0
2022-10-02T11:33:07.136Z,0
2022-10-02T11:34:07.149Z,0
2022-10-02T11:35:07.134Z,0
2022-10-02T11:36:07.135Z,0
2022-10-02T11:37:07.137Z,3.9000000000000004
2022-10-02T11:38:07.136Z,4.1000000000000005
2022-10-02T11:39:07.141Z,0
2022-10-02T11:40:07.131Z,0
2022-10-02T11:41:07.147Z,0
2022-10-02T11:42:07.138Z,0
2022-10-02T11:43:07.140Z,2.9000000000000004
2022-10-02T11:44:07.141Z,2.8000000000000003
2022-10-02T11:45:07.140Z,1.8
2022-10-02T11:46:07.190Z,1.9000000000000001
2022-10-02T11:47:07.141Z,0
2022-10-02T11:48:07.140Z,2.3000000000000003
2022-10-02T11:49:07.135Z,1.3
2022-10-02T11:50:07.172Z,0
2022-10-02T11:51:07.146Z,0
2022-10-02T11:52:07.150Z,3.3000000000000003
2022-10-02T11:53:07.144Z,0
2022-10-02T11:54:07.151Z,0
2022-10-02T11:55:07.148Z,0
2022-10-02T11:56:07.144Z,1.2000000000000002
2022-10-02T11:57:07.143Z,0
2022-10-02T11:58:07.142Z,0
2022-10-02T11:59:07.148Z,0
2022-10-02T12:00:07.152Z,0
2022-10-02T12:01:07.153Z,0
2022-10-02T12:02:07.230Z,0
2022-10-02T12:03:07.208Z,0
2022-10-02T12:04:07.157Z,0
2022-10-02T12:05:07.162Z,0
2022-10-02T12:06:07.175Z,0
2022-10-02T12:07:07.160Z,0
2022-10-02T12:08:07.153Z,0
2022-10-02T12:09:07.154Z,0
2022-10-02T12:10:07.152Z,0
2022-10-02T12:11:07.153Z,0
2022-10-02T12:12:07.155Z,0
2022-10-02T12:13:07.160Z,0
2022-10-02T12:14:07.147Z,0
2022-10-02T12:15:07.153Z,0
2022-10-02T12:16:07.179Z,0
2022-10-02T12:17:07.165Z,0
2022-10-02T12:18:07.166Z,0
2022-10-02T12:19:07.163Z,0
2022-10-02T12:20:07.157Z,0
2022-10-02T12:21:07.157Z,0
2022-10-02T12:22:07.189Z,0
2022-10-02T12:23:07.163Z,0
2022-10-02T12:24:07.165Z,0
2022-10-02T12:25:07.171Z,0
2022-10-02T12:26:07.176Z,0
2022-10-02T12:27:07.172Z,0
2022-10-02T12:28:07.218Z,0
2022-10-02T12:29:07.177Z,0
2022-10-02T12:30:07.174Z,0
2022-10-02T12:31:07.177Z,0
2022-10-02T12:32:07.230Z,0
2022-10-02T12:33:07.173Z,0
2022-10-02T12:34:07.175Z,0
2022-10-02T12:35:07.166Z,1.7000000000000002
2022-10-02T12:36:07.170Z,0
2022-10-02T12:37:07.178Z,0
2022-10-02T12:38:07.194Z,0
2022-10-02T12:39:07.175Z,0
2022-10-02T12:40:07.194Z,5.4
2022-10-02T12:41:07.167Z,6.800000000000001
2022-10-02T12:42:07.174Z,2.7
2022-10-02T12:43:07.178Z,0
2022-10-02T12:44:07.178Z,0
2022-10-02T12:45:11.510Z,0
2022-10-02T12:46:07.259Z,0
2022-10-02T12:47:07.177Z,0
2022-10-02T12:48:07.187Z,3.8000000000000003
2022-10-02T12:49:07.169Z,4.5
2022-10-02T12:50:07.186Z,7.6000000000000005
2022-10-02T12:51:07.172Z,4.5
2022-10-02T12:52:07.180Z,0.5
2022-10-02T12:53:07.178Z,2
2022-10-02T12:54:07.199Z,2.6
2022-10-02T12:55:07.180Z,0
2022-10-02T12:56:07.174Z,3.3000000000000003
2022-10-02T12:57:07.178Z,2.1
2022-10-02T12:58:07.177Z,5.2
2022-10-02T12:59:07.186Z,3.2
2022-10-02T13:00:07.198Z,0.9
2022-10-02T13:01:07.247Z,3.6
2022-10-02T13:02:07.215Z,1.7000000000000002
2022-10-02T13:03:07.215Z,1.9000000000000001
2022-10-02T13:04:07.180Z,0
2022-10-02T13:05:07.187Z,0
2022-10-02T13:06:07.179Z,0
2022-10-02T13:07:07.181Z,2.3000000000000003
2022-10-02T13:08:07.190Z,4.1000000000000005
2022-10-02T13:09:07.181Z,4.5
2022-10-02T13:10:07.242Z,0
2022-10-02T13:11:07.183Z,0
2022-10-02T13:12:07.181Z,0
2022-10-02T13:13:07.185Z,0
2022-10-02T13:14:07.189Z,4.1000000000000005
2022-10-02T13:15:07.182Z,4.4
2022-10-02T13:16:07.236Z,7.5
2022-10-02T13:17:09.909Z,5.4
2022-10-02T13:18:07.193Z,2.7
2022-10-02T13:19:07.183Z,0
2022-10-02T13:20:07.254Z,0
2022-10-02T13:21:07.184Z,0
2022-10-02T13:22:07.181Z,0
2022-10-02T13:23:07.179Z,0
2022-10-02T13:24:07.192Z,0
2022-10-02T13:25:07.186Z,4
2022-10-02T13:26:07.209Z,2.2
2022-10-02T13:27:07.188Z,0
2022-10-02T13:28:07.244Z,0
2022-10-02T13:29:07.183Z,0
2022-10-02T13:30:07.224Z,0
2022-10-02T13:31:07.192Z,0
2022-10-02T13:32:07.223Z,0
2022-10-02T13:33:07.183Z,0
2022-10-02T13:34:07.182Z,0
2022-10-02T13:35:07.188Z,0
2022-10-02T13:36:07.188Z,0
2022-10-02T13:37:07.183Z,0
2022-10-02T13:38:07.185Z,0
2022-10-02T13:39:07.188Z,0
2022-10-02T13:40:07.189Z,0
2022-10-02T13:41:07.175Z,0
2022-10-02T13:42:07.253Z,0
2022-10-02T13:43:07.189Z,0
2022-10-02T13:44:07.193Z,0
2022-10-02T13:45:07.188Z,0
2022-10-02T13:46:07.271Z,0
2022-10-02T13:47:07.188Z,0
2022-10-02T13:48:07.191Z,0
2022-10-02T13:49:07.185Z,0
2022-10-02T13:50:07.186Z,0
2022-10-02T13:51:07.188Z,0
2022-10-02T13:52:07.182Z,0
2022-10-02T13:53:07.192Z,0
2022-10-02T13:54:07.213Z,0
2022-10-02T13:55:07.190Z,0
2022-10-02T13:56:08.444Z,0
2022-10-02T13:57:07.189Z,0
2022-10-02T13:58:07.215Z,0
2022-10-02T13:59:07.199Z,0
2022-10-02T14:00:07.198Z,0
2022-10-02T14:01:07.240Z,0
2022-10-02T14:02:07.204Z,0
2022-10-02T14:03:07.202Z,0
2022-10-02T14:04:07.238Z,0
2022-10-02T14:05:07.208Z,0
2022-10-02T14:06:07.207Z,0
2022-10-02T14:07:07.210Z,0
2022-10-02T14:08:07.210Z,0
2022-10-02T14:09:07.202Z,0
2022-10-02T14:10:07.216Z,0
2022-10-02T14:11:07.201Z,0
2022-10-02T14:12:07.205Z,0
2022-10-02T14:13:07.211Z,0
2022-10-02T14:14:07.298Z,0
2022-10-02T14:15:07.214Z,0
2022-10-02T14:16:07.297Z,0
2022-10-02T14:17:07.221Z,0
2022-10-02T14:18:07.228Z,0
2022-10-02T14:19:07.460Z,0
2022-10-02T14:20:07.213Z,0
2022-10-02T14:21:07.215Z,0
2022-10-02T14:22:07.227Z,0
2022-10-02T14:23:07.216Z,0
2022-10-02T14:24:07.219Z,0
2022-10-02T14:25:07.217Z,0
2022-10-02T14:26:07.227Z,0
2022-10-02T14:27:07.213Z,0
2022-10-02T14:28:07.309Z,0
2022-10-02T14:29:08.861Z,0
2022-10-02T14:30:07.242Z,0
2022-10-02T14:31:07.217Z,0
2022-10-02T14:32:07.351Z,0